createdAt,value
2019-06-07T00:02:18.625Z,17.79
2019-06-07T00:04:51.046Z,17.82
2019-06-07T00:07:22.997Z,17.79
2019-06-07T00:09:55.108Z,17.76
2019-06-07T00:12:27.074Z,17.70
2019-06-07T00:15:00.207Z,17.64
2019-06-07T00:17:32.166Z,17.60
2019-06-07T00:20:08.510Z,17.57
2019-06-07T00:22:39.915Z,17.52
2019-06-07T00:25:15.887Z,17.48
2019-06-07T00:27:47.702Z,17.49
2019-06-07T00:30:50.659Z,17.48
2019-06-07T00:32:55.539Z,17.49
2019-06-07T00:35:27.592Z,17.46
2019-06-07T00:37:59.555Z,17.44
2019-06-07T00:40:32.382Z,17.49
2019-06-07T00:43:04.627Z,17.46
2019-06-07T00:45:36.530Z,17.42
2019-06-07T00:48:08.464Z,17.38
2019-06-07T00:50:40.380Z,17.39
2019-06-07T00:53:17.257Z,17.37
2019-06-07T00:55:46.043Z,17.37
2019-06-07T00:58:21.836Z,17.37
2019-06-07T01:00:51.667Z,17.38
2019-06-07T01:03:25.813Z,17.36
2019-06-07T01:05:57.639Z,17.36
2019-06-07T01:08:30.248Z,17.35
2019-06-07T01:11:02.729Z,17.37
2019-06-07T01:13:35.366Z,17.38
2019-06-07T01:16:07.483Z,17.37
2019-06-07T01:18:46.193Z,17.36
2019-06-07T01:21:15.902Z,17.36
2019-06-07T01:24:08.053Z,17.32
2019-06-07T01:26:26.416Z,17.29
2019-06-07T01:28:57.899Z,17.28
2019-06-07T01:31:31.955Z,17.27
2019-06-07T01:34:04.443Z,17.26
2019-06-07T01:36:36.389Z,17.29
2019-06-07T01:39:08.659Z,17.28
2019-06-07T01:41:40.835Z,17.27
2019-06-07T01:44:13.355Z,17.33
2019-06-07T01:46:45.499Z,17.44
2019-06-07T01:49:17.387Z,17.54
2019-06-07T01:51:49.313Z,17.56
2019-06-07T01:56:55.960Z,17.54
2019-06-07T01:59:31.028Z,17.57
2019-06-07T02:02:01.618Z,17.66
2019-06-07T02:04:33.879Z,17.72
2019-06-07T02:07:05.992Z,17.77
2019-06-07T02:09:37.879Z,17.78
2019-06-07T02:12:25.477Z,17.83
2019-06-07T02:14:52.142Z,17.85
2019-06-07T02:17:30.946Z,17.86
2019-06-07T02:20:02.221Z,17.88
2019-06-07T02:22:34.251Z,17.88
2019-06-07T02:27:41.228Z,17.94
2019-06-07T02:32:47.168Z,17.93
2019-06-07T02:35:19.250Z,17.97
2019-06-07T02:37:51.224Z,17.97
2019-06-07T02:40:24.556Z,17.98
2019-06-07T02:42:57.217Z,17.97
2019-06-07T02:45:36.170Z,17.99
2019-06-07T02:48:04.010Z,18.02
2019-06-07T02:50:38.703Z,18.03
2019-06-07T02:53:10.177Z,18.04
2019-06-07T02:56:33.265Z,18.11
2019-06-07T02:58:15.694Z,18.14
2019-06-07T03:01:09.188Z,18.19
2019-06-07T03:03:24.681Z,18.21
2019-06-07T03:05:57.862Z,18.22
2019-06-07T03:08:35.446Z,18.24
2019-06-07T03:11:06.813Z,18.22
2019-06-07T03:13:40.996Z,18.27
2019-06-07T03:16:15.137Z,18.25
2019-06-07T03:18:55.992Z,18.28
2019-06-07T03:21:33.754Z,18.35
2019-06-07T03:24:05.843Z,18.35
2019-06-07T03:27:30.530Z,18.37
2019-06-07T03:29:12.338Z,18.37
2019-06-07T03:31:47.750Z,18.37
2019-06-07T03:34:17.799Z,18.38
2019-06-07T03:36:49.762Z,18.42
2019-06-07T03:39:21.766Z,18.47
2019-06-07T03:42:05.912Z,18.53
2019-06-07T03:44:28.568Z,18.54
2019-06-07T03:47:01.055Z,18.54
2019-06-07T03:49:38.783Z,18.59
2019-06-07T03:52:06.722Z,18.71
2019-06-07T03:54:39.900Z,18.81
2019-06-07T03:57:11.976Z,18.82
2019-06-07T03:59:43.882Z,18.94
2019-06-07T04:02:15.917Z,19.00
2019-06-07T04:04:47.845Z,19.18
2019-06-07T04:07:19.684Z,19.25
2019-06-07T04:09:51.756Z,19.27
2019-06-07T04:12:23.789Z,19.31
2019-06-07T04:14:55.723Z,19.41
2019-06-07T04:17:31.152Z,19.47
2019-06-07T04:20:01.490Z,19.48
2019-06-07T04:22:38.831Z,19.50
2019-06-07T04:25:12.522Z,19.57
2019-06-07T04:27:44.530Z,19.39
2019-06-07T04:30:26.599Z,19.39
2019-06-07T04:32:58.503Z,19.43
2019-06-07T04:35:31.396Z,19.54
2019-06-07T04:38:04.395Z,19.31
2019-06-07T04:40:39.960Z,19.32
2019-06-07T04:43:11.407Z,19.36
2019-06-07T04:45:50.808Z,19.24
2019-06-07T04:48:18.776Z,19.22
2019-06-07T04:50:52.466Z,19.38
2019-06-07T04:53:24.610Z,19.68
2019-06-07T04:55:57.008Z,19.84
2019-06-07T04:58:30.451Z,19.82
2019-06-07T05:01:03.850Z,19.56
2019-06-07T05:03:38.857Z,19.53
2019-06-07T05:06:09.626Z,19.55
2019-06-07T05:08:43.588Z,19.54
2019-06-07T05:11:15.310Z,19.58
2019-06-07T05:13:47.271Z,19.68
2019-06-07T05:16:19.256Z,19.98
2019-06-07T05:18:51.196Z,19.85
2019-06-07T05:21:23.122Z,19.71
2019-06-07T05:24:06.394Z,19.71
2019-06-07T05:26:30.500Z,19.69
2019-06-07T05:29:02.216Z,19.68
2019-06-07T05:31:35.785Z,19.85
2019-06-07T05:34:07.766Z,19.91
2019-06-07T05:36:44.271Z,20.11
2019-06-07T05:39:13.452Z,20.35
2019-06-07T05:41:45.431Z,20.42
2019-06-07T05:44:17.399Z,20.46
2019-06-07T05:46:49.468Z,20.15
2019-06-07T05:49:22.454Z,20.11
2019-06-07T05:51:54.410Z,19.94
2019-06-07T05:54:26.326Z,20.08
2019-06-07T05:56:58.298Z,19.96
2019-06-07T05:59:30.277Z,19.97
2019-06-07T06:02:21.216Z,19.55
2019-06-07T06:04:39.327Z,19.68
2019-06-07T06:07:11.049Z,19.73
2019-06-07T06:09:43.821Z,19.36
2019-06-07T06:12:34.117Z,19.23
2019-06-07T06:14:52.045Z,19.13
2019-06-07T06:17:24.336Z,19.22
2019-06-07T06:19:56.214Z,18.97
2019-06-07T06:22:28.135Z,19.03
2019-06-07T06:25:30.751Z,18.77
2019-06-07T06:30:12.895Z,18.77
2019-06-07T06:32:52.644Z,19.03
2019-06-07T06:35:19.545Z,19.14
2019-06-07T06:37:53.466Z,19.31
2019-06-07T06:40:26.686Z,19.67
2019-06-07T06:42:58.677Z,19.84
2019-06-07T06:45:30.605Z,19.80
2019-06-07T06:48:02.610Z,19.25
2019-06-07T06:50:34.648Z,19.67
2019-06-07T06:53:52.599Z,19.64
2019-06-07T06:56:25.670Z,19.50
2019-06-07T06:59:35.186Z,19.14
2019-06-07T07:01:31.677Z,18.82
2019-06-07T07:04:11.982Z,18.69
2019-06-07T07:06:38.337Z,18.72
2019-06-07T07:09:10.276Z,18.87
2019-06-07T07:11:55.235Z,18.80
2019-06-07T07:14:16.082Z,18.82
2019-06-07T07:16:53.557Z,18.69
2019-06-07T07:19:21.660Z,18.68
2019-06-07T07:21:55.321Z,19.08
2019-06-07T07:24:28.190Z,19.11
2019-06-07T07:27:00.199Z,19.01
2019-06-07T07:29:32.391Z,18.76
2019-06-07T07:32:04.463Z,18.87
2019-06-07T07:34:37.566Z,18.87
2019-06-07T07:37:09.753Z,18.42
2019-06-07T07:39:41.667Z,18.22
2019-06-07T07:42:20.889Z,18.31
2019-06-07T07:44:49.887Z,18.34
2019-06-07T07:47:21.049Z,18.43
2019-06-07T07:49:56.388Z,18.83
2019-06-07T07:52:26.636Z,19.17
2019-06-07T07:54:58.652Z,19.16
2019-06-07T07:57:30.538Z,19.47
2019-06-07T08:00:36.881Z,19.54
2019-06-07T08:02:36.129Z,19.45
2019-06-07T08:05:25.251Z,19.36
2019-06-07T08:07:42.194Z,19.43
2019-06-07T08:10:14.573Z,19.97
2019-06-07T08:13:08.915Z,20.53
2019-06-07T08:15:20.532Z,20.91
2019-06-07T08:17:58.041Z,21.50
2019-06-07T08:20:26.162Z,21.79
2019-06-07T08:23:01.134Z,21.81
2019-06-07T08:25:32.825Z,22.08
2019-06-07T08:28:05.780Z,21.95
2019-06-07T08:30:58.353Z,21.86
2019-06-07T08:33:25.305Z,22.26
2019-06-07T08:36:06.035Z,22.45
2019-06-07T08:38:27.296Z,21.88
2019-06-07T08:40:56.726Z,21.41
2019-06-07T08:43:25.857Z,21.07
2019-06-07T08:46:02.277Z,21.42
2019-06-07T08:48:31.486Z,21.81
2019-06-07T08:51:08.057Z,21.50
2019-06-07T08:53:37.091Z,21.09
2019-06-07T08:56:10.930Z,20.87
2019-06-07T08:58:42.543Z,21.12
2019-06-07T09:01:14.528Z,21.69
2019-06-07T09:03:46.480Z,22.15
2019-06-07T09:07:01.227Z,22.02
2019-06-07T09:08:53.337Z,21.99
2019-06-07T09:11:25.871Z,21.44
2019-06-07T09:14:02.157Z,21.91
2019-06-07T09:16:31.616Z,21.98
2019-06-07T09:19:10.312Z,21.15
2019-06-07T09:21:38.565Z,21.20
2019-06-07T09:24:11.965Z,21.71
2019-06-07T09:26:44.316Z,22.06
2019-06-07T09:29:16.738Z,22.07
2019-06-07T09:31:53.138Z,23.08
2019-06-07T09:34:22.385Z,22.77
2019-06-07T09:36:57.531Z,22.58
2019-06-07T09:39:28.435Z,22.75
2019-06-07T09:42:01.643Z,23.62
2019-06-07T09:44:34.114Z,23.74
2019-06-07T09:47:22.194Z,23.67
2019-06-07T09:49:39.803Z,23.78
2019-06-07T09:52:11.682Z,23.63
2019-06-07T09:55:06.240Z,23.59
2019-06-07T09:57:18.011Z,23.17
2019-06-07T09:59:50.820Z,23.89
2019-06-07T10:02:22.848Z,23.52
2019-06-07T10:04:54.731Z,23.33
2019-06-07T10:07:31.687Z,22.89
2019-06-07T10:12:34.867Z,22.73
2019-06-07T10:15:08.939Z,23.25
2019-06-07T10:17:41.133Z,23.79
2019-06-07T10:20:13.243Z,24.86
2019-06-07T10:22:45.150Z,25.23
2019-06-07T10:25:17.059Z,24.67
2019-06-07T10:27:49.043Z,25.25
2019-06-07T10:30:22.508Z,25.21
2019-06-07T10:32:54.433Z,24.72
2019-06-07T10:35:26.604Z,25.04
2019-06-07T10:37:58.714Z,25.07
2019-06-07T10:40:30.662Z,24.41
2019-06-07T10:43:03.046Z,25.32
2019-06-07T10:45:35.085Z,25.11
2019-06-07T10:48:07.651Z,25.05
2019-06-07T10:50:39.608Z,25.19
2019-06-07T10:53:12.539Z,25.22
2019-06-07T10:55:45.825Z,24.97
2019-06-07T10:58:17.809Z,24.84
2019-06-07T11:00:49.756Z,24.47
2019-06-07T11:03:21.689Z,24.02
2019-06-07T11:05:53.723Z,24.20
2019-06-07T11:08:25.663Z,24.59
2019-06-07T11:10:57.708Z,24.92
2019-06-07T11:13:29.757Z,25.26
2019-06-07T11:16:01.712Z,24.80
2019-06-07T11:18:33.810Z,24.27
2019-06-07T11:21:08.426Z,24.49
2019-06-07T11:23:40.714Z,24.55
2019-06-07T11:26:12.606Z,24.41
2019-06-07T11:28:44.578Z,24.28
2019-06-07T11:31:16.541Z,24.71
2019-06-07T11:33:48.537Z,25.14
2019-06-07T11:36:21.753Z,25.62
2019-06-07T11:38:53.840Z,26.15
2019-06-07T11:41:26.075Z,26.70
2019-06-07T11:43:58.093Z,26.31
2019-06-07T11:46:30.264Z,26.15
2019-06-07T11:49:02.277Z,26.77
2019-06-07T11:51:34.279Z,26.81
2019-06-07T11:54:07.789Z,27.30
2019-06-07T11:56:39.881Z,27.62
2019-06-07T11:59:13.141Z,27.47
2019-06-07T12:01:45.442Z,27.13
2019-06-07T12:04:32.389Z,27.03
2019-06-07T12:06:51.099Z,26.98
2019-06-07T12:09:23.109Z,26.72
2019-06-07T12:11:54.967Z,26.34
2019-06-07T12:14:26.867Z,26.32
2019-06-07T12:16:58.759Z,26.73
2019-06-07T12:19:30.949Z,27.05
2019-06-07T12:22:02.840Z,26.72
2019-06-07T12:24:34.743Z,26.75
2019-06-07T12:27:06.715Z,26.90
2019-06-07T12:29:38.539Z,27.22
2019-06-07T12:32:11.237Z,27.25
2019-06-07T12:34:43.301Z,27.48
2019-06-07T12:37:18.939Z,27.54
2019-06-07T12:39:48.970Z,27.53
2019-06-07T12:42:21.078Z,27.52
2019-06-07T12:44:53.013Z,27.30
2019-06-07T12:47:25.069Z,27.19
2019-06-07T12:49:57.020Z,27.15
2019-06-07T12:52:28.975Z,26.99
2019-06-07T12:55:01.151Z,27.36
2019-06-07T12:57:33.009Z,27.61
2019-06-07T13:00:13.946Z,27.00
2019-06-07T13:02:47.031Z,26.49
2019-06-07T13:05:19.969Z,26.17
2019-06-07T13:07:52.120Z,26.31
2019-06-07T13:10:24.199Z,26.50
2019-06-07T13:12:56.241Z,26.41
2019-06-07T13:15:28.382Z,26.34
2019-06-07T13:18:00.591Z,26.34
2019-06-07T13:20:32.634Z,25.86
2019-06-07T13:23:04.705Z,26.20
2019-06-07T13:25:46.363Z,26.67
2019-06-07T13:28:10.466Z,27.23
2019-06-07T13:30:42.383Z,27.47
2019-06-07T13:33:14.327Z,27.66
2019-06-07T13:35:46.969Z,27.40
2019-06-07T13:38:26.698Z,27.29
2019-06-07T13:41:04.642Z,26.94
2019-06-07T13:43:36.469Z,27.30
2019-06-07T13:46:12.679Z,27.25
2019-06-07T13:48:42.108Z,27.57
2019-06-07T13:51:14.042Z,26.95
2019-06-07T13:53:45.851Z,27.14
2019-06-07T13:56:17.834Z,27.36
2019-06-07T13:58:49.798Z,27.40
2019-06-07T14:01:22.460Z,26.83
2019-06-07T14:03:54.785Z,26.82
2019-06-07T14:06:28.156Z,27.05
2019-06-07T14:09:00.512Z,27.87
2019-06-07T14:11:49.510Z,27.78
2019-06-07T14:14:07.892Z,27.69
2019-06-07T14:16:39.968Z,27.00
2019-06-07T14:19:11.830Z,27.27
2019-06-07T14:21:44.630Z,27.39
2019-06-07T14:24:16.450Z,27.30
2019-06-07T14:27:06.609Z,27.56
2019-06-07T14:29:39.537Z,27.85
2019-06-07T14:32:11.510Z,28.11
2019-06-07T14:34:43.459Z,28.09
2019-06-07T14:37:15.438Z,27.82
2019-06-07T14:39:47.409Z,27.74
2019-06-07T14:42:19.353Z,27.28
2019-06-07T14:44:51.209Z,26.82
2019-06-07T14:47:40.020Z,26.48
2019-06-07T14:50:12.897Z,26.32
2019-06-07T14:52:44.802Z,26.47
2019-06-07T14:55:16.890Z,26.78
2019-06-07T14:57:49.055Z,26.92
2019-06-07T15:00:22.769Z,27.08
2019-06-07T15:02:54.675Z,27.33
2019-06-07T15:05:31.339Z,27.58
2019-06-07T15:08:05.249Z,27.68
2019-06-07T15:10:37.225Z,27.91
2019-06-07T15:13:09.269Z,28.10
2019-06-07T15:15:41.604Z,27.99
2019-06-07T15:18:13.527Z,28.15
2019-06-07T15:20:45.401Z,28.09
2019-06-07T15:23:17.325Z,28.17
2019-06-07T15:25:49.145Z,27.98
2019-06-07T15:28:21.520Z,27.95
2019-06-07T15:30:53.383Z,28.02
2019-06-07T15:33:27.773Z,27.99
2019-06-07T15:35:59.748Z,28.20
2019-06-07T15:38:33.090Z,28.19
2019-06-07T15:41:05.186Z,28.10
2019-06-07T15:43:37.519Z,28.00
2019-06-07T15:46:09.550Z,28.14
2019-06-07T15:48:41.541Z,28.40
2019-06-07T15:51:13.398Z,28.65
2019-06-07T15:53:45.310Z,28.88
2019-06-07T15:56:17.185Z,28.28
2019-06-07T15:58:49.182Z,27.90
2019-06-07T16:01:21.055Z,27.73
2019-06-07T16:03:53.138Z,27.53
2019-06-07T16:06:25.183Z,27.32
2019-06-07T16:08:57.250Z,27.12
2019-06-07T16:11:29.285Z,27.59
2019-06-07T16:14:01.497Z,27.57
2019-06-07T16:16:35.045Z,27.64
2019-06-07T16:19:07.327Z,28.03
2019-06-07T16:21:39.541Z,28.40
2019-06-07T16:24:11.548Z,28.73
2019-06-07T16:26:44.563Z,28.90
2019-06-07T16:29:16.759Z,28.97
2019-06-07T16:31:48.722Z,29.06
2019-06-07T16:34:20.724Z,29.18
2019-06-07T16:36:52.686Z,29.22
2019-06-07T16:39:24.669Z,29.41
2019-06-07T16:41:56.860Z,29.28
2019-06-07T16:44:30.462Z,29.27
2019-06-07T16:47:02.579Z,29.16
2019-06-07T16:49:34.711Z,29.02
2019-06-07T16:52:06.683Z,29.01
2019-06-07T16:54:39.331Z,28.95
2019-06-07T16:57:11.273Z,28.96
2019-06-07T16:59:49.075Z,28.97
2019-06-07T17:02:20.014Z,28.84
2019-06-07T17:04:52.012Z,28.81
2019-06-07T17:07:23.829Z,28.74
2019-06-07T17:09:55.801Z,28.52
2019-06-07T17:12:27.765Z,28.65
2019-06-07T17:14:59.734Z,28.59
2019-06-07T17:17:31.604Z,28.43
2019-06-07T17:20:04.807Z,28.39
2019-06-07T17:22:37.300Z,28.21
2019-06-07T17:25:11.678Z,28.02
2019-06-07T17:27:43.977Z,27.98
2019-06-07T17:30:16.889Z,28.09
2019-06-07T17:32:58.501Z,27.96
2019-06-07T17:35:22.667Z,27.89
2019-06-07T17:37:54.706Z,27.71
2019-06-07T17:40:26.754Z,27.47
2019-06-07T17:42:58.755Z,27.27
2019-06-07T17:45:31.021Z,27.24
2019-06-07T17:48:03.104Z,27.07
2019-06-07T17:50:35.294Z,26.99
2019-06-07T17:53:07.943Z,26.87
2019-06-07T17:55:41.959Z,26.66
2019-06-07T17:58:13.983Z,26.51
2019-06-07T18:00:58.789Z,26.41
2019-06-07T18:03:30.760Z,26.27
2019-06-07T18:06:04.516Z,25.97
2019-06-07T18:08:36.803Z,25.74
2019-06-07T18:11:08.800Z,25.57
2019-06-07T18:13:41.177Z,25.37
2019-06-07T18:16:13.306Z,25.16
2019-06-07T18:18:46.875Z,25.12
2019-06-07T18:21:19.692Z,25.04
2019-06-07T18:23:52.998Z,24.84
2019-06-07T18:26:25.418Z,24.66
2019-06-07T18:28:59.296Z,24.51
2019-06-07T18:31:32.048Z,24.39
2019-06-07T18:34:03.932Z,24.21
2019-06-07T18:36:37.517Z,23.98
2019-06-07T18:39:09.989Z,23.92
2019-06-07T18:41:43.488Z,23.81
2019-06-07T18:44:21.544Z,23.67
2019-06-07T18:46:50.136Z,23.57
2019-06-07T18:49:22.251Z,23.49
2019-06-07T18:52:15.265Z,23.33
2019-06-07T18:54:48.722Z,23.19
2019-06-07T18:57:20.968Z,22.91
2019-06-07T18:59:52.863Z,22.66
2019-06-07T19:02:25.874Z,22.56
2019-06-07T19:04:59.823Z,22.48
2019-06-07T19:07:31.693Z,22.30
2019-06-07T19:10:11.344Z,22.13
2019-06-07T19:12:44.678Z,22.01
2019-06-07T19:15:19.514Z,21.89
2019-06-07T19:17:52.164Z,21.77
2019-06-07T19:20:24.404Z,21.68
2019-06-07T19:22:56.574Z,21.57
2019-06-07T19:25:28.563Z,21.41
2019-06-07T19:28:01.097Z,21.28
2019-06-07T19:30:33.234Z,21.17
2019-06-07T19:33:48.458Z,21.06
2019-06-07T19:36:08.688Z,20.90
2019-06-07T19:38:40.803Z,20.77
2019-06-07T19:41:19.648Z,20.77
2019-06-07T19:43:48.153Z,20.73
2019-06-07T19:46:20.087Z,20.57
2019-06-07T19:48:52.506Z,20.50
2019-06-07T19:51:24.527Z,20.41
2019-06-07T19:53:57.106Z,20.35
2019-06-07T19:56:29.112Z,20.25
2019-06-07T19:59:01.815Z,20.11
2019-06-07T20:01:34.287Z,20.04
2019-06-07T20:04:06.269Z,19.84
2019-06-07T20:06:38.330Z,19.76
2019-06-07T20:09:10.356Z,19.75
2019-06-07T20:11:42.397Z,19.65
2019-06-07T20:14:14.532Z,19.60
2019-06-07T20:16:46.423Z,19.49
2019-06-07T20:19:18.625Z,19.40
2019-06-07T20:21:50.605Z,19.39
2019-06-07T20:24:27.409Z,19.28
2019-06-07T20:26:56.238Z,19.21
2019-06-07T20:29:30.129Z,19.11
2019-06-07T20:32:02.514Z,19.17
2019-06-07T20:34:34.629Z,19.13
2019-06-07T20:37:07.729Z,19.10
2019-06-07T20:39:40.295Z,19.01
2019-06-07T20:42:12.223Z,18.94
2019-06-07T20:47:52.154Z,18.82
2019-06-07T20:50:24.052Z,18.76
2019-06-07T20:52:55.956Z,18.68
2019-06-07T20:55:27.862Z,18.70
2019-06-07T20:58:01.185Z,18.61
2019-06-07T21:00:33.315Z,18.53
2019-06-07T21:03:07.246Z,18.51
2019-06-07T21:05:39.394Z,18.44
2019-06-07T21:08:12.875Z,18.43
2019-06-07T21:10:45.198Z,18.38
2019-06-07T21:13:17.171Z,18.33
2019-06-07T21:15:49.494Z,18.26
2019-06-07T21:18:21.673Z,18.31
2019-06-07T21:20:53.763Z,18.29
2019-06-07T21:23:25.653Z,18.24
2019-06-07T21:25:58.744Z,18.22
2019-06-07T21:28:30.798Z,18.16
2019-06-07T21:31:03.786Z,18.14
2019-06-07T21:33:36.361Z,18.06
2019-06-07T21:36:09.706Z,18.03
2019-06-07T21:38:41.694Z,17.97
2019-06-07T21:41:13.669Z,17.89
2019-06-07T21:43:45.653Z,17.87
2019-06-07T21:46:20.441Z,17.86
2019-06-07T21:48:51.524Z,17.91
2019-06-07T21:51:23.564Z,17.90
2019-06-07T21:53:57.108Z,17.92
2019-06-07T21:56:29.165Z,17.91
2019-06-07T21:59:01.129Z,17.90
2019-06-07T22:01:33.774Z,17.90
2019-06-07T22:04:07.339Z,17.88
2019-06-07T22:06:39.606Z,17.87
2019-06-07T22:09:12.372Z,17.86
2019-06-07T22:11:44.447Z,17.87
2019-06-07T22:14:16.339Z,17.78
2019-06-07T22:16:48.268Z,17.73
2019-06-07T22:19:20.096Z,17.64
2019-06-07T22:22:02.234Z,17.64
2019-06-07T22:24:25.803Z,17.67
2019-06-07T22:26:57.705Z,17.69
2019-06-07T22:29:29.630Z,17.69
2019-06-07T22:32:01.675Z,17.69
2019-06-07T22:34:33.657Z,17.62
2019-06-07T22:37:07.049Z,17.54
2019-06-07T22:39:39.257Z,17.50
2019-06-07T22:42:13.507Z,17.43
2019-06-07T22:44:45.539Z,17.35
2019-06-07T22:47:18.319Z,17.26
2019-06-07T22:49:50.466Z,17.24
2019-06-07T22:52:22.501Z,17.18
2019-06-07T22:54:54.469Z,17.08
2019-06-07T22:57:29.198Z,17.06
2019-06-07T23:00:08.590Z,16.93
2019-06-07T23:02:35.146Z,16.92
2019-06-07T23:05:08.430Z,16.88
2019-06-07T23:07:40.604Z,16.89
2019-06-07T23:10:13.390Z,16.91
2019-06-07T23:12:45.469Z,16.97
2019-06-07T23:15:18.142Z,16.96
2019-06-07T23:17:51.366Z,17.00
2019-06-07T23:20:23.507Z,17.02
2019-06-07T23:23:01.791Z,16.99
2019-06-07T23:25:33.699Z,16.95
2019-06-07T23:28:05.828Z,16.93
2019-06-07T23:30:37.935Z,16.94
2019-06-07T23:33:14.824Z,16.87
2019-06-07T23:35:58.829Z,16.84
2019-06-07T23:38:30.881Z,16.80
2019-06-07T23:41:17.634Z,16.83
2019-06-07T23:43:55.761Z,16.86
2019-06-07T23:47:10.890Z,16.82
2019-06-07T23:49:36.840Z,16.76
2019-06-07T23:52:11.329Z,16.65
2019-06-07T23:54:44.904Z,16.66
2019-06-07T23:57:18.866Z,16.62
2019-06-07T23:59:50.704Z,16.60
